createdAt,value
2019-01-11T00:01:27.961Z,27.40
2019-01-11T00:03:58.870Z,26.10
2019-01-11T00:06:29.986Z,29.13
2019-01-11T00:09:01.106Z,27.07
2019-01-11T00:11:33.710Z,24.83
2019-01-11T00:14:05.123Z,24.90
2019-01-11T00:16:36.219Z,22.83
2019-01-11T00:19:07.828Z,25.40
2019-01-11T00:21:38.831Z,24.97
2019-01-11T00:24:11.358Z,24.70
2019-01-11T00:27:15.321Z,28.57
2019-01-11T00:29:46.542Z,23.67
2019-01-11T00:32:17.520Z,23.70
2019-01-11T00:34:48.754Z,22.53
2019-01-11T00:37:28.236Z,24.37
2019-01-11T00:40:28.928Z,24.17
2019-01-11T00:43:01.445Z,24.53
2019-01-11T00:45:48.069Z,26.17
2019-01-11T00:48:28.873Z,23.60
2019-01-11T00:51:00.023Z,22.80
2019-01-11T00:53:31.224Z,24.53
2019-01-11T00:56:02.361Z,21.67
2019-01-11T00:58:40.213Z,24.10
2019-01-11T01:01:11.517Z,24.10
2019-01-11T01:03:42.781Z,25.33
2019-01-11T01:06:14.032Z,26.30
2019-01-11T01:09:05.361Z,25.20
2019-01-11T01:11:44.511Z,22.13
2019-01-11T01:14:22.341Z,22.13
2019-01-11T01:16:53.436Z,20.70
2019-01-11T01:19:24.663Z,23.60
2019-01-11T01:21:55.983Z,19.47
2019-01-11T01:25:02.536Z,20.47
2019-01-11T01:27:33.856Z,21.17
2019-01-11T01:30:10.957Z,20.97
2019-01-11T01:32:45.749Z,21.93
2019-01-11T01:35:17.157Z,21.03
2019-01-11T01:37:48.349Z,21.27
2019-01-11T01:40:20.171Z,21.87
2019-01-11T01:43:02.517Z,23.83
2019-01-11T01:45:33.669Z,24.30
2019-01-11T01:48:09.280Z,22.00
2019-01-11T01:51:19.571Z,21.50
2019-01-11T01:54:15.263Z,20.67
2019-01-11T01:56:49.479Z,18.90
2019-01-11T01:59:20.752Z,18.90
2019-01-11T02:02:38.669Z,21.73
2019-01-11T02:05:11.961Z,19.97
2019-01-11T02:07:43.218Z,19.50
2019-01-11T02:10:15.188Z,19.20
2019-01-11T02:12:46.602Z,22.00
2019-01-11T02:15:34.966Z,18.67
2019-01-11T02:18:41.390Z,20.33
2019-01-11T02:21:13.697Z,18.60
2019-01-11T02:24:04.152Z,20.33
2019-01-11T02:26:36.377Z,22.53
2019-01-11T02:29:07.497Z,20.90
2019-01-11T02:31:41.930Z,18.10
2019-01-11T02:34:14.186Z,23.50
2019-01-11T02:36:45.245Z,19.73
2019-01-11T02:39:16.759Z,20.40
2019-01-11T02:42:03.759Z,18.50
2019-01-11T02:44:35.211Z,19.90
2019-01-11T02:47:06.513Z,20.43
2019-01-11T02:49:45.499Z,20.30
2019-01-11T02:52:33.175Z,19.37
2019-01-11T02:55:04.592Z,19.37
2019-01-11T02:57:35.652Z,20.30
2019-01-11T03:00:17.818Z,18.80
2019-01-11T03:02:50.330Z,19.90
2019-01-11T03:05:50.661Z,20.73
2019-01-11T03:08:37.594Z,18.80
2019-01-11T03:11:11.437Z,17.90
2019-01-11T03:13:42.551Z,20.23
2019-01-11T03:16:13.604Z,22.47
2019-01-11T03:18:44.545Z,23.70
2019-01-11T03:21:18.455Z,24.70
2019-01-11T03:23:52.153Z,27.50
2019-01-11T03:26:31.599Z,25.60
2019-01-11T03:29:03.771Z,23.90
2019-01-11T03:31:37.596Z,30.23
2019-01-11T03:34:09.455Z,24.83
2019-01-11T03:36:44.549Z,26.27
2019-01-11T03:39:29.751Z,32.47
2019-01-11T03:42:12.166Z,25.80
2019-01-11T03:44:48.070Z,28.00
2019-01-11T03:47:32.515Z,25.37
2019-01-11T03:50:04.128Z,27.00
2019-01-11T03:52:46.341Z,29.23
2019-01-11T03:55:18.162Z,25.80
2019-01-11T03:57:49.687Z,42.63
2019-01-11T04:00:23.761Z,28.53
2019-01-11T04:02:54.884Z,30.43
2019-01-11T04:05:28.557Z,32.80
2019-01-11T04:08:06.281Z,30.43
2019-01-11T04:10:37.551Z,37.77
2019-01-11T04:13:14.976Z,29.80
2019-01-11T04:15:46.236Z,33.80
2019-01-11T04:18:37.287Z,27.70
2019-01-11T04:21:08.424Z,34.10
2019-01-11T04:23:48.534Z,33.00
2019-01-11T04:26:20.388Z,36.00
2019-01-11T04:29:01.882Z,34.13
2019-01-11T04:31:36.774Z,35.80
2019-01-11T04:34:07.943Z,37.67
2019-01-11T04:36:39.156Z,38.07
2019-01-11T04:39:10.184Z,38.10
2019-01-11T04:41:41.197Z,40.30
2019-01-11T04:44:12.229Z,43.30
2019-01-11T04:46:43.148Z,47.43
2019-01-11T04:49:14.210Z,39.57
2019-01-11T04:51:45.250Z,39.00
2019-01-11T04:54:16.196Z,40.63
2019-01-11T04:56:47.186Z,45.07
2019-01-11T04:59:18.073Z,45.30
2019-01-11T05:01:49.048Z,39.63
2019-01-11T05:04:20.030Z,40.63
2019-01-11T05:06:54.253Z,49.03
2019-01-11T05:09:25.235Z,41.50
2019-01-11T05:11:56.324Z,43.23
2019-01-11T05:14:33.412Z,43.70
2019-01-11T05:17:04.638Z,43.30
2019-01-11T05:19:38.774Z,59.90
2019-01-11T05:22:20.916Z,63.73
2019-01-11T05:24:53.616Z,53.20
2019-01-11T05:27:42.062Z,44.60
2019-01-11T05:30:17.403Z,51.03
2019-01-11T05:32:48.669Z,49.20
2019-01-11T05:35:19.819Z,43.83
2019-01-11T05:37:51.002Z,52.70
2019-01-11T05:40:22.118Z,47.90
2019-01-11T05:42:59.669Z,55.83
2019-01-11T05:45:30.881Z,53.70
2019-01-11T05:48:02.006Z,51.50
2019-01-11T05:50:33.564Z,56.90
2019-01-11T05:53:06.051Z,50.53
2019-01-11T05:55:49.391Z,52.57
2019-01-11T05:58:37.795Z,65.60
2019-01-11T06:01:09.153Z,51.30
2019-01-11T06:03:43.169Z,67.30
2019-01-11T06:06:14.406Z,58.00
2019-01-11T06:08:47.360Z,47.20
2019-01-11T06:11:20.223Z,60.47
2019-01-11T06:13:52.686Z,72.60
2019-01-11T06:16:23.983Z,62.63
2019-01-11T06:18:55.538Z,53.93
2019-01-11T06:21:26.636Z,59.90
2019-01-11T06:23:57.845Z,53.87
2019-01-11T06:26:28.982Z,53.90
2019-01-11T06:28:59.986Z,70.10
2019-01-11T06:31:31.205Z,58.77
2019-01-11T06:34:02.199Z,63.97
2019-01-11T06:36:33.311Z,60.67
2019-01-11T06:39:06.511Z,59.10
2019-01-11T06:41:45.523Z,62.27
2019-01-11T06:44:16.439Z,71.77
2019-01-11T06:46:47.393Z,63.67
2019-01-11T06:49:18.374Z,59.53
2019-01-11T06:51:49.336Z,74.03
2019-01-11T06:54:20.298Z,64.67
2019-01-11T06:56:52.441Z,76.57
2019-01-11T06:59:23.455Z,66.57
2019-01-11T07:01:55.725Z,88.90
2019-01-11T07:04:26.777Z,77.33
2019-01-11T07:06:58.040Z,73.10
2019-01-11T07:09:30.853Z,79.57
2019-01-11T07:12:01.939Z,71.30
2019-01-11T07:14:34.159Z,76.70
2019-01-11T07:17:06.459Z,68.27
2019-01-11T07:19:38.595Z,63.47
2019-01-11T07:22:09.683Z,68.17
2019-01-11T07:25:04.129Z,64.57
2019-01-11T07:28:30.001Z,75.30
2019-01-11T07:31:08.971Z,49.13
2019-01-11T07:33:59.976Z,69.93
2019-01-11T07:36:42.117Z,62.17
2019-01-11T07:39:35.295Z,58.87
2019-01-11T07:42:11.991Z,57.33
2019-01-11T07:44:42.863Z,83.97
2019-01-11T07:47:14.031Z,60.97
2019-01-11T07:49:45.502Z,61.27
2019-01-11T07:52:19.785Z,82.20
2019-01-11T07:54:50.640Z,67.80
2019-01-11T07:57:22.611Z,63.00
2019-01-11T07:59:55.567Z,84.90
2019-01-11T08:02:26.900Z,77.77
2019-01-11T08:05:03.554Z,47.87
2019-01-11T08:07:34.821Z,58.73
2019-01-11T08:10:07.181Z,71.17
2019-01-11T08:12:39.414Z,76.90
2019-01-11T08:15:11.360Z,85.43
2019-01-11T08:17:42.693Z,98.43
2019-01-11T08:20:14.292Z,68.40
2019-01-11T08:22:45.415Z,97.60
2019-01-11T08:25:17.243Z,77.00
2019-01-11T08:27:55.306Z,70.40
2019-01-11T08:30:34.111Z,58.13
2019-01-11T08:33:07.637Z,67.13
2019-01-11T08:36:21.081Z,50.33
2019-01-11T08:39:08.916Z,58.33
2019-01-11T08:41:39.913Z,64.37
2019-01-11T08:47:06.842Z,49.60
2019-01-11T08:49:39.117Z,51.67
2019-01-11T08:52:09.975Z,41.53
2019-01-11T08:54:43.182Z,37.67
2019-01-11T08:57:16.678Z,38.77
2019-01-11T08:59:49.327Z,36.87
2019-01-11T09:02:20.680Z,46.00
2019-01-11T09:04:52.021Z,38.97
2019-01-11T09:07:23.506Z,30.27
2019-01-11T09:09:54.804Z,26.00
2019-01-11T09:12:26.040Z,24.37
2019-01-11T09:14:56.952Z,26.33
2019-01-11T09:17:28.130Z,26.43
2019-01-11T09:20:01.792Z,25.20
2019-01-11T09:22:33.023Z,33.17
2019-01-11T09:25:04.402Z,36.07
2019-01-11T09:31:24.608Z,34.83
2019-01-11T09:33:56.272Z,21.10
2019-01-11T09:36:29.975Z,24.33
2019-01-11T09:39:01.196Z,25.00
2019-01-11T09:41:38.188Z,24.53
2019-01-11T09:44:09.359Z,21.50
2019-01-11T09:46:40.360Z,23.40
2019-01-11T09:49:12.700Z,16.20
2019-01-11T09:52:00.672Z,14.03
2019-01-11T09:54:37.322Z,17.87
2019-01-11T09:57:24.330Z,23.70
2019-01-11T09:59:58.490Z,15.60
2019-01-11T10:02:38.741Z,18.53
2019-01-11T10:05:11.536Z,20.10
2019-01-11T10:07:47.668Z,12.30
2019-01-11T10:10:26.954Z,7.77
2019-01-11T10:13:04.215Z,20.70
2019-01-11T10:15:35.866Z,22.43
2019-01-11T10:18:07.141Z,16.70
2019-01-11T10:20:38.950Z,13.93
2019-01-11T10:23:17.724Z,21.90
2019-01-11T10:25:52.193Z,16.33
2019-01-11T10:28:30.446Z,18.83
2019-01-11T10:31:03.435Z,22.73
2019-01-11T10:33:36.313Z,16.90
2019-01-11T10:36:07.724Z,13.70
2019-01-11T10:38:38.959Z,16.77
2019-01-11T10:41:10.247Z,17.40
2019-01-11T10:43:41.511Z,9.77
2019-01-11T10:46:29.840Z,12.30
2019-01-11T10:49:01.475Z,12.87
2019-01-11T10:51:32.612Z,13.17
2019-01-11T10:54:04.200Z,11.10
2019-01-11T10:56:35.694Z,12.57
2019-01-11T10:59:07.125Z,12.07
2019-01-11T11:01:47.340Z,7.47
2019-01-11T11:04:18.453Z,9.73
2019-01-11T11:06:49.473Z,8.83
2019-01-11T11:09:20.674Z,12.07
2019-01-11T11:11:51.761Z,5.87
2019-01-11T11:14:22.912Z,6.87
2019-01-11T11:16:54.050Z,13.03
2019-01-11T11:19:25.161Z,7.90
2019-01-11T11:21:56.040Z,11.60
2019-01-11T11:24:27.336Z,8.47
2019-01-11T11:27:06.053Z,13.60
2019-01-11T11:29:42.525Z,6.30
2019-01-11T11:32:16.776Z,10.93
2019-01-11T11:34:51.686Z,12.43
2019-01-11T11:37:24.791Z,7.53
2019-01-11T11:39:55.749Z,4.27
2019-01-11T11:42:27.276Z,6.13
2019-01-11T11:44:58.493Z,7.60
2019-01-11T11:47:29.448Z,9.63
2019-01-11T11:50:00.584Z,6.10
2019-01-11T11:52:33.276Z,10.20
2019-01-11T11:55:23.818Z,7.67
2019-01-11T11:58:07.276Z,16.67
2019-01-11T12:00:38.737Z,7.33
2019-01-11T12:03:10.824Z,8.90
2019-01-11T12:05:41.794Z,7.33
2019-01-11T12:08:12.959Z,3.73
2019-01-11T12:10:44.011Z,8.03
2019-01-11T12:13:16.375Z,4.27
2019-01-11T12:15:48.015Z,11.70
2019-01-11T12:18:19.705Z,14.40
2019-01-11T12:20:55.767Z,9.40
2019-01-11T12:23:27.153Z,7.30
2019-01-11T12:26:03.397Z,6.87
2019-01-11T12:28:36.325Z,12.47
2019-01-11T12:31:09.168Z,15.47
2019-01-11T12:33:40.453Z,8.43
2019-01-11T12:36:11.515Z,11.87
2019-01-11T12:38:42.433Z,10.60
2019-01-11T12:41:13.508Z,10.57
2019-01-11T12:43:44.567Z,11.60
2019-01-11T12:46:16.387Z,29.03
2019-01-11T12:48:47.338Z,12.03
2019-01-11T12:51:18.479Z,9.00
2019-01-11T12:53:51.678Z,11.20
2019-01-11T12:56:22.921Z,8.00
2019-01-11T12:58:54.160Z,7.47
2019-01-11T13:01:25.849Z,11.03
2019-01-11T13:04:00.811Z,8.53
2019-01-11T13:06:35.471Z,13.57
2019-01-11T13:09:10.173Z,5.57
2019-01-11T13:11:41.931Z,7.60
2019-01-11T13:14:13.309Z,20.73
2019-01-11T13:16:44.581Z,15.17
2019-01-11T13:19:15.667Z,12.50
2019-01-11T13:21:46.918Z,13.30
2019-01-11T13:24:18.062Z,15.60
2019-01-11T13:26:52.516Z,13.27
2019-01-11T13:29:24.733Z,16.23
2019-01-11T13:31:56.453Z,9.23
2019-01-11T13:34:27.748Z,15.47
2019-01-11T13:36:59.071Z,9.10
2019-01-11T13:39:30.307Z,13.63
2019-01-11T13:42:01.948Z,17.13
2019-01-11T13:44:33.010Z,22.27
2019-01-11T13:47:07.099Z,15.83
2019-01-11T13:49:38.411Z,20.60
2019-01-11T13:52:09.960Z,23.03
2019-01-11T13:54:41.587Z,8.67
2019-01-11T13:57:12.635Z,15.13
2019-01-11T13:59:43.724Z,18.17
2019-01-11T14:02:15.005Z,19.13
2019-01-11T14:04:46.226Z,25.07
2019-01-11T14:07:18.478Z,17.23
2019-01-11T14:09:49.392Z,16.57
2019-01-11T14:12:20.307Z,15.87
2019-01-11T14:14:56.377Z,16.40
2019-01-11T14:17:29.798Z,19.90
2019-01-11T14:20:01.786Z,21.43
2019-01-11T14:22:33.043Z,25.10
2019-01-11T14:25:04.670Z,22.93
2019-01-11T14:27:37.811Z,26.17
2019-01-11T14:30:14.930Z,26.20
2019-01-11T14:32:46.571Z,22.27
2019-01-11T14:35:17.588Z,20.73
2019-01-11T14:37:48.512Z,21.07
2019-01-11T14:40:19.516Z,21.73
2019-01-11T14:42:50.848Z,47.93
2019-01-11T14:45:22.014Z,23.10
2019-01-11T14:47:53.232Z,20.83
2019-01-11T14:50:43.268Z,22.50
2019-01-11T14:53:14.510Z,17.77
2019-01-11T14:56:16.746Z,20.20
2019-01-11T14:58:56.678Z,21.47
2019-01-11T15:01:27.659Z,23.07
2019-01-11T15:03:58.748Z,19.17
2019-01-11T15:06:33.299Z,48.63
2019-01-11T15:09:06.886Z,29.07
2019-01-11T15:11:38.057Z,29.13
2019-01-11T15:14:11.194Z,19.10
2019-01-11T15:16:42.200Z,29.93
2019-01-11T15:19:14.093Z,28.77
2019-01-11T15:21:46.424Z,31.47
2019-01-11T15:24:20.480Z,35.87
2019-01-11T15:26:51.746Z,34.20
2019-01-11T15:29:22.900Z,32.07
2019-01-11T15:31:54.076Z,38.03
2019-01-11T15:34:25.007Z,41.90
2019-01-11T15:36:56.176Z,20.43
2019-01-11T15:39:27.317Z,19.37
2019-01-11T15:41:58.301Z,39.80
2019-01-11T15:44:29.460Z,31.67
2019-01-11T15:47:00.496Z,23.87
2019-01-11T15:49:31.704Z,35.43
2019-01-11T15:52:02.696Z,40.60
2019-01-11T15:54:34.674Z,34.67
2019-01-11T15:57:05.915Z,38.10
2019-01-11T16:00:00.628Z,32.00
2019-01-11T16:02:31.566Z,43.60
2019-01-11T16:05:02.655Z,27.63
2019-01-11T16:07:33.631Z,32.30
2019-01-11T16:10:21.160Z,36.67
2019-01-11T16:13:27.114Z,34.57
2019-01-11T16:16:40.158Z,24.20
2019-01-11T16:19:11.067Z,31.33
2019-01-11T16:21:41.964Z,35.80
2019-01-11T16:24:12.986Z,51.00
2019-01-11T16:26:44.158Z,30.10
2019-01-11T16:29:15.056Z,47.17
2019-01-11T16:31:46.160Z,33.80
2019-01-11T16:34:17.230Z,35.70
2019-01-11T16:36:48.327Z,37.07
2019-01-11T16:39:19.303Z,35.40
2019-01-11T16:41:50.453Z,49.70
2019-01-11T16:44:21.522Z,45.30
2019-01-11T16:46:52.509Z,33.63
2019-01-11T16:49:23.548Z,42.93
2019-01-11T16:51:54.546Z,34.97
2019-01-11T16:54:25.722Z,45.33
2019-01-11T16:56:56.649Z,44.37
2019-01-11T16:59:27.795Z,56.47
2019-01-11T17:01:58.734Z,46.43
2019-01-11T17:04:29.688Z,35.27
2019-01-11T17:07:08.767Z,45.67
2019-01-11T17:09:40.391Z,29.23
2019-01-11T17:12:11.360Z,44.07
2019-01-11T17:14:42.543Z,31.20
2019-01-11T17:17:13.659Z,24.23
2019-01-11T17:19:45.976Z,43.40
2019-01-11T17:22:21.618Z,31.00
2019-01-11T17:24:56.123Z,43.80
2019-01-11T17:27:27.543Z,37.20
2019-01-11T17:30:03.825Z,40.13
2019-01-11T17:32:35.549Z,42.70
2019-01-11T17:35:08.481Z,48.33
2019-01-11T17:37:41.705Z,41.00
2019-01-11T17:40:15.433Z,50.13
2019-01-11T17:42:47.395Z,34.13
2019-01-11T17:45:18.576Z,48.83
2019-01-11T17:47:51.871Z,57.87
2019-01-11T17:50:23.333Z,37.07
2019-01-11T17:52:59.807Z,42.43
2019-01-11T17:55:27.785Z,35.70
2019-01-11T17:57:58.895Z,51.53
2019-01-11T18:00:32.079Z,40.63
2019-01-11T18:03:15.939Z,47.20
2019-01-11T18:05:48.779Z,55.87
2019-01-11T18:08:30.163Z,35.53
2019-01-11T18:11:15.052Z,63.17
2019-01-11T18:13:46.485Z,49.33
2019-01-11T18:16:18.301Z,47.13
2019-01-11T18:18:51.822Z,41.17
2019-01-11T18:21:22.965Z,52.60
2019-01-11T18:23:54.077Z,37.37
2019-01-11T18:26:25.522Z,52.17
2019-01-11T18:28:57.077Z,52.07
2019-01-11T18:31:28.272Z,57.00
2019-01-11T18:33:59.444Z,49.20
2019-01-11T18:36:31.894Z,61.57
2019-01-11T18:39:04.395Z,43.00
2019-01-11T18:41:35.851Z,54.30
2019-01-11T18:44:07.159Z,48.67
2019-01-11T18:46:38.146Z,46.43
2019-01-11T18:49:09.205Z,52.47
2019-01-11T18:51:40.446Z,68.10
2019-01-11T18:54:11.744Z,29.87
2019-01-11T18:56:43.509Z,53.00
2019-01-11T18:59:15.642Z,49.47
2019-01-11T19:01:47.346Z,36.93
2019-01-11T19:04:18.593Z,35.23
2019-01-11T19:06:49.643Z,56.43
2019-01-11T19:09:29.280Z,64.57
2019-01-11T19:12:05.228Z,26.80
2019-01-11T19:14:36.386Z,57.33
2019-01-11T19:17:07.559Z,48.67
2019-01-11T19:19:38.727Z,41.17
2019-01-11T19:22:09.840Z,52.50
2019-01-11T19:24:40.789Z,51.20
2019-01-11T19:27:12.074Z,44.23
2019-01-11T19:29:43.534Z,63.70
2019-01-11T19:32:14.665Z,44.30
2019-01-11T19:34:45.863Z,67.13
2019-01-11T19:37:17.532Z,57.33
2019-01-11T19:39:48.647Z,46.40
2019-01-11T19:42:19.678Z,43.20
2019-01-11T19:44:50.676Z,53.17
2019-01-11T19:47:22.720Z,46.37
2019-01-11T19:49:53.755Z,48.80
2019-01-11T19:52:25.002Z,57.33
2019-01-11T19:54:57.716Z,37.33
2019-01-11T19:57:28.936Z,49.23
2019-01-11T20:00:00.256Z,46.63
2019-01-11T20:02:31.589Z,55.23
2019-01-11T20:05:03.629Z,47.53
2019-01-11T20:07:35.636Z,51.77
2019-01-11T20:10:10.045Z,34.03
2019-01-11T20:12:42.675Z,50.23
2019-01-11T20:15:14.311Z,46.33
2019-01-11T20:17:45.795Z,60.77
2019-01-11T20:20:17.289Z,46.03
2019-01-11T20:22:48.625Z,57.00
2019-01-11T20:25:23.481Z,46.53
2019-01-11T20:27:54.700Z,51.67
2019-01-11T20:30:28.298Z,56.70
2019-01-11T20:32:59.566Z,34.63
2019-01-11T20:35:33.524Z,42.50
2019-01-11T20:38:04.969Z,56.20
2019-01-11T20:40:37.180Z,56.13
2019-01-11T20:43:10.423Z,49.87
2019-01-11T20:45:42.380Z,50.70
2019-01-11T20:48:14.308Z,41.20
2019-01-11T20:50:46.202Z,47.50
2019-01-11T20:53:18.545Z,51.17
2019-01-11T20:55:50.059Z,50.30
2019-01-11T20:58:21.536Z,41.23
2019-01-11T21:00:52.713Z,32.63
2019-01-11T21:03:23.678Z,32.33
2019-01-11T21:05:54.961Z,71.70
2019-01-11T21:08:26.198Z,45.10
2019-01-11T21:10:57.404Z,56.43
2019-01-11T21:13:28.491Z,50.23
2019-01-11T21:15:59.729Z,38.20
2019-01-11T21:18:30.865Z,46.40
2019-01-11T21:21:01.952Z,47.57
2019-01-11T21:23:33.105Z,45.13
2019-01-11T21:26:04.376Z,40.87
2019-01-11T21:28:35.523Z,40.33
2019-01-11T21:31:06.852Z,48.67
2019-01-11T21:33:38.019Z,27.70
2019-01-11T21:36:09.279Z,46.43
2019-01-11T21:38:40.285Z,41.00
2019-01-11T21:41:11.316Z,41.73
2019-01-11T21:43:43.247Z,35.23
2019-01-11T21:46:14.564Z,58.43
2019-01-11T21:48:47.065Z,42.37
2019-01-11T21:51:18.329Z,40.27
2019-01-11T21:53:55.690Z,51.90
2019-01-11T21:56:43.024Z,47.70
2019-01-11T21:59:14.215Z,49.30
2019-01-11T22:01:45.241Z,69.60
2019-01-11T22:04:16.358Z,47.27
2019-01-11T22:06:47.398Z,39.67
2019-01-11T22:09:18.625Z,58.23
2019-01-11T22:11:49.619Z,41.80
2019-01-11T22:14:21.938Z,43.03
2019-01-11T22:16:53.246Z,48.10
2019-01-11T22:19:24.598Z,26.97
2019-01-11T22:21:55.895Z,72.37
2019-01-11T22:24:29.335Z,50.93
2019-01-11T22:27:00.817Z,42.07
2019-01-11T22:29:32.402Z,51.80
2019-01-11T22:32:04.639Z,54.23
2019-01-11T22:34:35.693Z,33.60
2019-01-11T22:37:06.836Z,45.60
2019-01-11T22:39:37.767Z,36.63
2019-01-11T22:42:08.963Z,59.00
2019-01-11T22:44:39.983Z,35.53
2019-01-11T22:47:10.952Z,41.47
2019-01-11T22:49:41.886Z,36.77
2019-01-11T22:52:12.925Z,49.67
2019-01-11T22:54:45.252Z,54.77
2019-01-11T22:57:16.293Z,37.40
2019-01-11T22:59:47.261Z,52.50
2019-01-11T23:02:46.175Z,56.10
2019-01-11T23:05:17.659Z,53.90
2019-01-11T23:07:59.959Z,31.10
2019-01-11T23:11:46.868Z,41.13
2019-01-11T23:14:17.999Z,37.67
2019-01-11T23:17:10.939Z,32.70
2019-01-11T23:19:42.362Z,47.77
2019-01-11T23:22:13.262Z,40.70
2019-01-11T23:24:44.555Z,40.07
2019-01-11T23:27:15.603Z,30.90
2019-01-11T23:29:46.642Z,48.97
2019-01-11T23:32:17.828Z,25.43
2019-01-11T23:34:49.046Z,20.03
2019-01-11T23:37:20.046Z,34.53
2019-01-11T23:39:51.278Z,47.97
2019-01-11T23:42:23.981Z,51.53
2019-01-11T23:44:56.971Z,43.73
2019-01-11T23:47:28.108Z,29.67
2019-01-11T23:50:03.811Z,41.30
2019-01-11T23:52:36.560Z,35.10
2019-01-11T23:55:08.941Z,40.20
2019-01-11T23:57:40.387Z,42.70
